createdAt,value
2019-03-23T00:00:44.102Z,11.27
2019-03-23T00:03:12.590Z,11.90
2019-03-23T00:05:41.051Z,13.10
2019-03-23T00:08:09.622Z,13.07
2019-03-23T00:10:38.155Z,12.93
2019-03-23T00:13:06.619Z,8.47
2019-03-23T00:15:35.182Z,10.50
2019-03-23T00:18:03.743Z,12.43
2019-03-23T00:20:32.206Z,12.07
2019-03-23T00:23:00.670Z,12.87
2019-03-23T00:25:29.223Z,9.03
2019-03-23T00:27:57.687Z,10.67
2019-03-23T00:30:26.187Z,11.43
2019-03-23T00:32:54.651Z,9.83
2019-03-23T00:35:23.202Z,12.47
2019-03-23T00:37:51.694Z,9.07
2019-03-23T00:40:20.150Z,11.40
2019-03-23T00:42:48.649Z,10.87
2019-03-23T00:45:17.387Z,11.80
2019-03-23T00:47:45.881Z,13.23
2019-03-23T00:50:14.574Z,8.90
2019-03-23T00:52:43.049Z,11.27
2019-03-23T00:55:11.683Z,9.73
2019-03-23T00:57:40.147Z,10.43
2019-03-23T01:00:11.291Z,12.57
2019-03-23T01:02:41.869Z,12.37
2019-03-23T01:05:10.662Z,10.43
2019-03-23T01:07:39.337Z,10.27
2019-03-23T01:10:10.126Z,9.50
2019-03-23T01:12:38.587Z,10.20
2019-03-23T01:15:09.394Z,10.33
2019-03-23T01:17:37.955Z,8.77
2019-03-23T01:20:10.975Z,16.50
2019-03-23T01:22:39.700Z,10.03
2019-03-23T01:25:10.135Z,11.43
2019-03-23T01:27:38.767Z,10.53
2019-03-23T01:30:12.775Z,10.07
2019-03-23T01:32:41.378Z,10.93
2019-03-23T01:35:10.138Z,12.33
2019-03-23T01:37:38.638Z,15.80
2019-03-23T01:40:08.010Z,10.33
2019-03-23T01:42:36.538Z,8.13
2019-03-23T01:45:10.656Z,12.53
2019-03-23T01:47:39.219Z,15.67
2019-03-23T01:50:09.094Z,11.13
2019-03-23T01:52:37.650Z,12.87
2019-03-23T01:55:09.445Z,10.43
2019-03-23T01:57:38.182Z,12.60
2019-03-23T02:00:08.833Z,11.27
2019-03-23T02:02:37.462Z,10.93
2019-03-23T02:05:07.679Z,10.50
2019-03-23T02:07:36.174Z,11.93
2019-03-23T02:10:09.318Z,11.30
2019-03-23T02:12:37.870Z,10.40
2019-03-23T02:15:11.514Z,12.83
2019-03-23T02:17:40.140Z,13.57
2019-03-23T02:20:10.967Z,10.57
2019-03-23T02:22:39.642Z,12.13
2019-03-23T02:25:08.243Z,14.47
2019-03-23T02:27:36.798Z,10.23
2019-03-23T02:30:11.068Z,11.23
2019-03-23T02:32:39.608Z,10.87
2019-03-23T02:35:09.244Z,10.63
2019-03-23T02:37:37.779Z,11.27
2019-03-23T02:40:08.224Z,12.20
2019-03-23T02:42:36.743Z,10.20
2019-03-23T02:45:08.317Z,12.60
2019-03-23T02:47:36.846Z,11.00
2019-03-23T02:50:10.051Z,12.17
2019-03-23T02:52:38.590Z,11.67
2019-03-23T02:55:09.695Z,13.27
2019-03-23T02:57:38.293Z,14.43
2019-03-23T03:00:14.672Z,13.07
2019-03-23T03:02:43.208Z,13.00
2019-03-23T03:05:12.108Z,13.40
2019-03-23T03:07:43.316Z,12.10
2019-03-23T03:10:12.895Z,17.83
2019-03-23T03:12:41.527Z,11.80
2019-03-23T03:15:10.733Z,12.63
2019-03-23T03:17:39.458Z,13.23
2019-03-23T03:20:09.591Z,12.07
2019-03-23T03:22:38.152Z,11.10
2019-03-23T03:25:27.475Z,11.80
2019-03-23T03:27:56.044Z,24.10
2019-03-23T03:30:24.573Z,12.97
2019-03-23T03:32:53.144Z,14.63
2019-03-23T03:35:21.708Z,11.87
2019-03-23T03:37:56.453Z,12.73
2019-03-23T03:40:20.388Z,13.03
2019-03-23T03:42:49.020Z,12.67
2019-03-23T03:45:28.272Z,12.30
2019-03-23T03:47:57.055Z,12.97
2019-03-23T03:50:25.623Z,13.13
2019-03-23T03:52:54.159Z,12.07
2019-03-23T03:55:22.762Z,12.93
2019-03-23T03:57:51.244Z,12.87
2019-03-23T04:00:19.712Z,11.10
2019-03-23T04:02:48.274Z,13.27
2019-03-23T04:05:16.781Z,11.37
2019-03-23T04:07:45.752Z,12.73
2019-03-23T04:10:14.371Z,12.37
2019-03-23T04:12:43.023Z,13.20
2019-03-23T04:15:12.298Z,11.00
2019-03-23T04:17:40.830Z,10.27
2019-03-23T04:20:10.649Z,11.60
2019-03-23T04:22:39.204Z,11.87
2019-03-23T04:25:09.304Z,15.50
2019-03-23T04:27:37.932Z,14.20
2019-03-23T04:30:08.875Z,14.33
2019-03-23T04:32:37.365Z,13.13
2019-03-23T04:35:07.469Z,14.07
2019-03-23T04:37:36.135Z,13.20
2019-03-23T04:40:07.339Z,14.57
2019-03-23T04:42:35.798Z,13.90
2019-03-23T04:45:06.426Z,14.40
2019-03-23T04:47:34.984Z,13.30
2019-03-23T04:50:04.764Z,13.37
2019-03-23T04:52:33.234Z,16.73
2019-03-23T04:55:01.823Z,13.07
2019-03-23T04:57:30.335Z,12.10
2019-03-23T04:59:59.042Z,16.07
2019-03-23T05:02:27.529Z,14.17
2019-03-23T05:04:56.011Z,15.27
2019-03-23T05:07:24.511Z,13.43
2019-03-23T05:09:53.250Z,13.63
2019-03-23T05:12:21.724Z,14.83
2019-03-23T05:14:50.294Z,13.60
2019-03-23T05:17:18.750Z,14.13
2019-03-23T05:19:47.215Z,13.37
2019-03-23T05:22:15.770Z,12.13
2019-03-23T05:24:44.274Z,11.73
2019-03-23T05:27:12.817Z,13.87
2019-03-23T05:29:41.359Z,11.70
2019-03-23T05:32:09.923Z,11.80
2019-03-23T05:34:38.383Z,14.33
2019-03-23T05:37:06.885Z,13.47
2019-03-23T05:39:35.346Z,13.00
2019-03-23T05:42:03.871Z,15.03
2019-03-23T05:44:32.363Z,12.77
2019-03-23T05:47:00.907Z,16.93
2019-03-23T05:49:29.401Z,13.43
2019-03-23T05:51:57.863Z,13.23
2019-03-23T05:54:26.362Z,12.47
2019-03-23T05:56:54.826Z,11.00
2019-03-23T05:59:23.311Z,15.97
2019-03-23T06:01:51.851Z,10.63
2019-03-23T06:04:20.323Z,11.50
2019-03-23T06:06:48.798Z,12.37
2019-03-23T06:09:17.255Z,9.43
2019-03-23T06:11:45.838Z,11.23
2019-03-23T06:14:14.302Z,12.50
2019-03-23T06:16:42.787Z,12.37
2019-03-23T06:19:11.248Z,10.80
2019-03-23T06:21:39.868Z,12.57
2019-03-23T06:24:08.382Z,12.17
2019-03-23T06:26:36.881Z,12.43
2019-03-23T06:29:05.410Z,15.07
2019-03-23T06:31:33.966Z,10.20
2019-03-23T06:34:02.551Z,14.87
2019-03-23T06:36:31.107Z,13.70
2019-03-23T06:39:05.398Z,9.73
2019-03-23T06:41:29.789Z,11.17
2019-03-23T06:43:58.298Z,10.40
2019-03-23T06:46:26.830Z,10.77
2019-03-23T06:48:55.312Z,11.43
2019-03-23T06:51:23.795Z,12.37
2019-03-23T06:53:52.262Z,10.67
2019-03-23T06:56:20.769Z,12.33
2019-03-23T06:58:49.340Z,13.03
2019-03-23T07:01:18.000Z,14.10
2019-03-23T07:03:46.534Z,12.40
2019-03-23T07:06:15.091Z,12.97
2019-03-23T07:08:43.671Z,14.10
2019-03-23T07:11:12.139Z,10.93
2019-03-23T07:13:40.646Z,14.63
2019-03-23T07:16:09.115Z,13.63
2019-03-23T07:18:37.587Z,10.90
2019-03-23T07:21:06.148Z,13.80
2019-03-23T07:23:34.638Z,13.60
2019-03-23T07:26:03.277Z,12.90
2019-03-23T07:28:31.778Z,13.47
2019-03-23T07:31:00.313Z,15.23
2019-03-23T07:33:28.941Z,15.50
2019-03-23T07:35:57.479Z,12.53
2019-03-23T07:38:26.114Z,14.23
2019-03-23T07:40:54.658Z,14.63
2019-03-23T07:43:23.127Z,13.57
2019-03-23T07:45:51.629Z,17.27
2019-03-23T07:48:20.119Z,16.03
2019-03-23T07:50:48.600Z,16.53
2019-03-23T07:53:17.175Z,18.17
2019-03-23T07:55:45.727Z,23.00
2019-03-23T07:58:14.297Z,24.17
2019-03-23T08:00:42.830Z,25.97
2019-03-23T08:03:11.303Z,25.03
2019-03-23T08:05:39.794Z,21.03
2019-03-23T08:08:08.255Z,24.17
2019-03-23T08:10:36.767Z,24.60
2019-03-23T08:13:05.322Z,20.12
2019-03-23T08:15:33.870Z,22.13
2019-03-23T08:18:02.451Z,22.25
2019-03-23T08:20:32.858Z,29.12
2019-03-23T08:23:01.486Z,28.60
2019-03-23T08:25:29.946Z,26.63
2019-03-23T08:27:58.462Z,29.02
2019-03-23T08:30:27.165Z,30.05
2019-03-23T08:32:55.698Z,31.57
2019-03-23T08:35:24.290Z,26.65
2019-03-23T08:37:52.827Z,30.32
2019-03-23T08:40:21.456Z,30.43
2019-03-23T08:42:50.458Z,29.12
2019-03-23T08:45:18.957Z,31.95
2019-03-23T08:47:47.498Z,32.35
2019-03-23T08:50:15.990Z,29.55
2019-03-23T08:52:44.463Z,29.48
2019-03-23T08:55:12.964Z,29.80
2019-03-23T08:57:41.605Z,33.05
2019-03-23T09:00:10.922Z,29.55
2019-03-23T09:02:39.491Z,32.33
2019-03-23T09:05:08.707Z,36.20
2019-03-23T09:07:37.230Z,34.63
2019-03-23T09:10:07.445Z,34.83
2019-03-23T09:12:36.078Z,31.05
2019-03-23T09:15:07.091Z,36.75
2019-03-23T09:17:35.731Z,34.90
2019-03-23T09:20:07.434Z,35.78
2019-03-23T09:22:35.909Z,37.23
2019-03-23T09:25:05.612Z,33.85
2019-03-23T09:27:34.180Z,36.73
2019-03-23T09:30:02.850Z,37.17
2019-03-23T09:32:31.348Z,35.48
2019-03-23T09:34:59.814Z,34.45
2019-03-23T09:37:28.374Z,38.55
2019-03-23T09:39:58.661Z,35.05
2019-03-23T09:42:27.082Z,42.58
2019-03-23T09:44:55.553Z,31.50
2019-03-23T09:47:24.234Z,39.35
2019-03-23T09:49:52.832Z,39.00
2019-03-23T09:52:21.334Z,31.77
2019-03-23T09:54:49.834Z,33.90
2019-03-23T09:57:18.307Z,32.25
2019-03-23T09:59:46.811Z,36.50
2019-03-23T10:02:15.283Z,37.63
2019-03-23T10:04:43.754Z,32.45
2019-03-23T10:07:12.351Z,33.48
2019-03-23T10:09:40.931Z,35.15
2019-03-23T10:12:09.399Z,37.28
2019-03-23T10:14:37.968Z,36.38
2019-03-23T10:17:06.466Z,41.50
2019-03-23T10:19:35.050Z,43.15
2019-03-23T10:22:03.521Z,44.55
2019-03-23T10:24:31.994Z,45.67
2019-03-23T10:27:00.592Z,42.03
2019-03-23T10:29:29.139Z,42.48
2019-03-23T10:31:57.718Z,42.17
2019-03-23T10:34:26.186Z,43.63
2019-03-23T10:36:54.686Z,42.78
2019-03-23T10:39:23.370Z,41.95
2019-03-23T10:41:51.866Z,42.30
2019-03-23T10:44:20.339Z,41.10
2019-03-23T10:46:48.921Z,41.85
2019-03-23T10:49:17.470Z,42.65
2019-03-23T10:51:46.018Z,46.15
2019-03-23T10:54:14.520Z,44.18
2019-03-23T10:56:43.064Z,49.13
2019-03-23T10:59:11.643Z,47.13
2019-03-23T11:01:40.115Z,48.80
2019-03-23T11:04:08.615Z,49.45
2019-03-23T11:06:37.155Z,47.48
2019-03-23T11:09:06.968Z,47.17
2019-03-23T11:11:35.455Z,47.23
2019-03-23T11:14:04.199Z,47.83
2019-03-23T11:16:32.718Z,49.00
2019-03-23T11:19:01.186Z,50.75
2019-03-23T11:21:29.654Z,51.88
2019-03-23T11:23:58.147Z,51.25
2019-03-23T11:26:28.141Z,53.23
2019-03-23T11:28:56.824Z,50.70
2019-03-23T11:31:25.379Z,55.83
2019-03-23T11:33:54.498Z,52.13
2019-03-23T11:36:23.010Z,52.33
2019-03-23T11:38:51.483Z,57.50
2019-03-23T11:41:19.950Z,56.13
2019-03-23T11:43:48.515Z,55.92
2019-03-23T11:46:17.163Z,58.60
2019-03-23T11:48:45.755Z,60.90
2019-03-23T11:51:14.243Z,60.08
2019-03-23T11:53:42.809Z,63.02
2019-03-23T11:56:11.278Z,60.15
2019-03-23T11:58:39.826Z,67.82
2019-03-23T12:01:08.366Z,67.05
2019-03-23T12:03:36.935Z,67.53
2019-03-23T12:06:05.470Z,63.47
2019-03-23T12:08:33.969Z,66.93
2019-03-23T12:11:03.313Z,71.77
2019-03-23T12:13:31.895Z,68.60
2019-03-23T12:16:00.386Z,65.90
2019-03-23T12:18:28.855Z,66.13
2019-03-23T12:20:57.347Z,64.97
2019-03-23T12:23:26.674Z,65.50
2019-03-23T12:25:55.406Z,62.70
2019-03-23T12:28:23.879Z,68.90
2019-03-23T12:30:53.990Z,64.70
2019-03-23T12:33:22.560Z,64.30
2019-03-23T12:35:51.211Z,67.47
2019-03-23T12:38:20.082Z,66.53
2019-03-23T12:40:48.627Z,65.33
2019-03-23T12:43:17.119Z,66.20
2019-03-23T12:45:46.472Z,67.23
2019-03-23T12:48:14.969Z,65.20
2019-03-23T12:50:43.442Z,69.47
2019-03-23T12:53:11.935Z,68.50
2019-03-23T12:55:40.502Z,72.30
2019-03-23T12:58:09.003Z,67.50
2019-03-23T13:00:37.474Z,65.17
2019-03-23T13:03:06.043Z,66.20
2019-03-23T13:05:34.518Z,69.67
2019-03-23T13:08:02.991Z,67.07
2019-03-23T13:10:31.483Z,64.63
2019-03-23T13:12:59.955Z,73.47
2019-03-23T13:15:28.492Z,68.20
2019-03-23T13:17:57.130Z,66.60
2019-03-23T13:20:25.766Z,66.50
2019-03-23T13:22:54.350Z,66.30
2019-03-23T13:25:22.825Z,67.77
2019-03-23T13:27:51.395Z,66.90
2019-03-23T13:30:19.959Z,70.23
2019-03-23T13:32:48.437Z,65.10
2019-03-23T13:35:17.030Z,65.23
2019-03-23T13:37:45.970Z,69.20
2019-03-23T13:40:14.775Z,71.20
2019-03-23T13:42:43.355Z,65.60
2019-03-23T13:45:12.358Z,67.53
2019-03-23T13:47:41.073Z,63.33
2019-03-23T13:50:11.080Z,65.60
2019-03-23T13:52:39.646Z,68.63
2019-03-23T13:55:09.954Z,65.73
2019-03-23T13:57:38.532Z,68.23
2019-03-23T14:00:08.340Z,66.20
2019-03-23T14:02:36.883Z,64.73
2019-03-23T14:05:12.261Z,63.90
2019-03-23T14:07:36.206Z,67.03
2019-03-23T14:10:06.249Z,73.27
2019-03-23T14:12:34.786Z,66.27
2019-03-23T14:15:03.554Z,67.80
2019-03-23T14:17:32.118Z,61.00
2019-03-23T14:20:00.590Z,76.77
2019-03-23T14:22:29.251Z,66.83
2019-03-23T14:24:57.790Z,70.27
2019-03-23T14:27:26.362Z,71.63
2019-03-23T14:29:54.918Z,70.90
2019-03-23T14:32:23.478Z,69.07
2019-03-23T14:34:51.951Z,70.10
2019-03-23T14:37:20.518Z,73.03
2019-03-23T14:39:49.000Z,79.70
2019-03-23T14:42:17.512Z,84.80
2019-03-23T14:44:46.050Z,77.27
2019-03-23T14:47:14.520Z,77.70
2019-03-23T14:49:43.096Z,80.47
2019-03-23T14:52:11.595Z,82.50
2019-03-23T14:54:40.078Z,77.73
2019-03-23T14:57:08.628Z,82.13
2019-03-23T14:59:37.130Z,88.87
2019-03-23T15:02:05.671Z,78.57
2019-03-23T15:04:34.284Z,85.60
2019-03-23T15:07:02.751Z,87.53
2019-03-23T15:09:31.266Z,80.17
2019-03-23T15:11:59.811Z,79.63
2019-03-23T15:14:28.379Z,79.90
2019-03-23T15:16:56.866Z,81.20
2019-03-23T15:19:25.368Z,79.20
2019-03-23T15:21:53.838Z,81.83
2019-03-23T15:24:22.303Z,79.83
2019-03-23T15:26:50.819Z,75.20
2019-03-23T15:29:19.287Z,84.23
2019-03-23T15:31:47.777Z,84.10
2019-03-23T15:34:16.295Z,77.63
2019-03-23T15:36:44.767Z,79.17
2019-03-23T15:39:13.240Z,79.33
2019-03-23T15:41:41.806Z,82.27
2019-03-23T15:44:10.279Z,77.83
2019-03-23T15:46:38.771Z,86.30
2019-03-23T15:49:08.900Z,83.83
2019-03-23T15:51:37.467Z,78.03
2019-03-23T15:54:06.000Z,82.40
2019-03-23T15:56:34.680Z,79.67
2019-03-23T15:59:03.224Z,79.03
2019-03-23T16:01:31.759Z,84.13
2019-03-23T16:04:00.364Z,81.97
2019-03-23T16:06:28.906Z,82.30
2019-03-23T16:08:57.383Z,82.50
2019-03-23T16:11:25.871Z,78.70
2019-03-23T16:13:54.378Z,84.13
2019-03-23T16:16:22.850Z,83.97
2019-03-23T16:18:51.343Z,79.97
2019-03-23T16:21:19.884Z,83.10
2019-03-23T16:23:48.370Z,77.17
2019-03-23T16:26:16.838Z,85.70
2019-03-23T16:28:45.344Z,84.63
2019-03-23T16:31:13.874Z,90.83
2019-03-23T16:33:42.435Z,84.47
2019-03-23T16:36:10.939Z,84.03
2019-03-23T16:38:39.506Z,82.90
2019-03-23T16:41:08.127Z,81.97
2019-03-23T16:43:36.647Z,82.10
2019-03-23T16:46:05.219Z,89.00
2019-03-23T16:48:33.799Z,85.37
2019-03-23T16:51:02.366Z,85.23
2019-03-23T16:53:30.846Z,89.53
2019-03-23T16:55:59.402Z,84.63
2019-03-23T16:58:27.882Z,88.27
2019-03-23T17:00:56.421Z,81.30
2019-03-23T17:03:25.000Z,83.07
2019-03-23T17:05:53.642Z,78.23
2019-03-23T17:08:22.115Z,80.10
2019-03-23T17:10:50.859Z,78.07
2019-03-23T17:13:19.330Z,83.93
2019-03-23T17:15:47.976Z,80.93
2019-03-23T17:18:16.547Z,84.57
2019-03-23T17:20:45.089Z,82.57
2019-03-23T17:23:13.950Z,80.97
2019-03-23T17:25:42.657Z,75.80
2019-03-23T17:28:11.294Z,72.83
2019-03-23T17:30:39.795Z,75.23
2019-03-23T17:33:09.009Z,79.07
2019-03-23T17:35:37.641Z,79.47
2019-03-23T17:38:06.319Z,80.37
2019-03-23T17:40:34.886Z,68.10
2019-03-23T17:43:06.134Z,76.03
2019-03-23T17:45:33.851Z,69.93
2019-03-23T17:48:02.394Z,75.93
2019-03-23T17:50:30.985Z,71.43
2019-03-23T17:52:59.530Z,73.57
2019-03-23T17:55:28.172Z,73.30
2019-03-23T17:57:56.675Z,79.83
2019-03-23T18:00:25.390Z,73.60
2019-03-23T18:02:53.882Z,74.83
2019-03-23T18:05:22.820Z,77.90
2019-03-23T18:07:51.659Z,74.40
2019-03-23T18:10:20.262Z,79.07
2019-03-23T18:12:48.886Z,75.03
2019-03-23T18:15:17.456Z,78.90
2019-03-23T18:17:45.914Z,76.80
2019-03-23T18:20:14.815Z,76.73
2019-03-23T18:22:43.279Z,72.00
2019-03-23T18:25:12.610Z,79.50
2019-03-23T18:27:41.080Z,77.53
2019-03-23T18:30:27.375Z,75.70
2019-03-23T18:32:55.910Z,76.73
2019-03-23T18:35:24.568Z,80.27
2019-03-23T18:37:53.107Z,81.03
2019-03-23T18:40:21.692Z,89.30
2019-03-23T18:42:50.371Z,82.27
2019-03-23T18:45:19.017Z,84.77
2019-03-23T18:47:47.682Z,84.97
2019-03-23T18:50:16.266Z,85.33
2019-03-23T18:52:44.879Z,80.17
2019-03-23T18:55:13.532Z,78.57
2019-03-23T18:57:42.110Z,85.27
2019-03-23T19:00:12.259Z,81.93
2019-03-23T19:02:40.798Z,84.10
2019-03-23T19:05:09.552Z,80.13
2019-03-23T19:07:38.023Z,81.57
2019-03-23T19:10:07.443Z,81.60
2019-03-23T19:12:35.938Z,85.67
2019-03-23T19:15:06.442Z,82.63
2019-03-23T19:17:35.102Z,81.63
2019-03-23T19:20:06.435Z,80.20
2019-03-23T19:22:34.906Z,81.03
2019-03-23T19:25:03.972Z,82.87
2019-03-23T19:27:32.438Z,84.90
2019-03-23T19:30:00.978Z,83.27
2019-03-23T19:32:29.474Z,80.33
2019-03-23T19:35:00.150Z,88.50
2019-03-23T19:37:28.191Z,84.57
2019-03-23T19:39:57.650Z,80.67
2019-03-23T19:42:26.142Z,78.43
2019-03-23T19:44:54.630Z,83.67
2019-03-23T19:47:23.271Z,87.27
2019-03-23T19:49:51.765Z,85.93
2019-03-23T19:52:20.335Z,78.83
2019-03-23T19:54:48.875Z,85.60
2019-03-23T19:57:17.366Z,82.13
2019-03-23T19:59:45.838Z,83.97
2019-03-23T20:02:14.310Z,87.17
2019-03-23T20:04:42.866Z,84.27
2019-03-23T20:07:11.399Z,83.87
2019-03-23T20:09:39.935Z,88.77
2019-03-23T20:12:08.428Z,87.97
2019-03-23T20:14:37.047Z,90.87
2019-03-23T20:17:05.631Z,86.60
2019-03-23T20:19:34.126Z,86.90
2019-03-23T20:22:02.599Z,91.97
2019-03-23T20:24:31.159Z,86.50
2019-03-23T20:27:00.411Z,82.83
2019-03-23T20:29:28.898Z,83.80
2019-03-23T20:31:57.458Z,86.37
2019-03-23T20:34:25.959Z,94.00
2019-03-23T20:36:54.594Z,82.57
2019-03-23T20:39:23.062Z,95.93
2019-03-23T20:41:51.550Z,83.20
2019-03-23T20:44:20.039Z,82.47
2019-03-23T20:46:48.875Z,81.77
2019-03-23T20:49:17.371Z,84.83
2019-03-23T20:51:45.843Z,66.17
2019-03-23T20:54:14.604Z,72.80
2019-03-23T20:56:43.148Z,78.57
2019-03-23T20:59:11.678Z,71.13
2019-03-23T21:01:40.246Z,78.70
2019-03-23T21:04:08.720Z,73.30
2019-03-23T21:06:37.278Z,78.13
2019-03-23T21:09:07.582Z,79.00
2019-03-23T21:11:36.446Z,80.37
2019-03-23T21:14:05.046Z,77.00
2019-03-23T21:16:33.633Z,82.47
2019-03-23T21:19:02.194Z,77.27
2019-03-23T21:21:30.658Z,88.53
2019-03-23T21:23:59.215Z,84.57
2019-03-23T21:26:27.810Z,78.63
2019-03-23T21:28:57.177Z,85.43
2019-03-23T21:31:25.714Z,80.27
2019-03-23T21:33:54.215Z,85.33
2019-03-23T21:36:22.686Z,81.53
2019-03-23T21:38:51.222Z,80.83
2019-03-23T21:41:19.712Z,76.47
2019-03-23T21:43:48.284Z,82.80
2019-03-23T21:46:16.818Z,84.40
2019-03-23T21:48:45.287Z,83.70
2019-03-23T21:51:13.783Z,85.27
2019-03-23T21:53:42.341Z,81.37
2019-03-23T21:56:11.017Z,86.27
2019-03-23T21:58:39.579Z,79.97
2019-03-23T22:01:08.376Z,79.27
2019-03-23T22:03:37.214Z,84.10
2019-03-23T22:06:05.779Z,95.67
2019-03-23T22:08:34.257Z,84.33
2019-03-23T22:11:02.811Z,79.87
2019-03-23T22:13:31.307Z,85.17
2019-03-23T22:15:59.796Z,76.63
2019-03-23T22:18:28.291Z,84.23
2019-03-23T22:20:56.794Z,84.00
2019-03-23T22:23:25.335Z,85.57
2019-03-23T22:25:54.135Z,79.30
2019-03-23T22:28:22.674Z,79.73
2019-03-23T22:30:51.251Z,79.23
2019-03-23T22:33:19.719Z,81.30
2019-03-23T22:35:48.266Z,81.30
2019-03-23T22:38:16.763Z,70.07
2019-03-23T22:40:45.330Z,79.23
2019-03-23T22:43:13.802Z,77.03
2019-03-23T22:45:42.474Z,69.63
2019-03-23T22:48:11.019Z,75.60
2019-03-23T22:50:39.485Z,72.40
2019-03-23T22:53:08.050Z,72.20
2019-03-23T22:55:36.516Z,71.57
2019-03-23T22:58:05.010Z,69.67
2019-03-23T23:00:47.232Z,69.57
2019-03-23T23:03:15.868Z,61.07
2019-03-23T23:05:44.770Z,65.63
2019-03-23T23:08:13.226Z,62.53
2019-03-23T23:10:41.817Z,63.37
2019-03-23T23:13:10.441Z,63.97
2019-03-23T23:15:39.114Z,63.57
2019-03-23T23:18:07.708Z,59.13
2019-03-23T23:20:36.253Z,56.80
2019-03-23T23:23:04.792Z,62.60
2019-03-23T23:25:33.290Z,61.37
2019-03-23T23:28:01.827Z,61.07
2019-03-23T23:30:30.435Z,63.50
2019-03-23T23:32:58.904Z,58.37
2019-03-23T23:35:27.582Z,63.07
2019-03-23T23:37:56.043Z,56.00
2019-03-23T23:40:24.545Z,59.57
2019-03-23T23:42:53.007Z,55.30
2019-03-23T23:45:21.507Z,61.03
2019-03-23T23:47:50.019Z,54.50
2019-03-23T23:50:18.553Z,56.90
2019-03-23T23:52:47.023Z,53.87
2019-03-23T23:55:15.487Z,53.47
2019-03-23T23:57:43.987Z,53.27
